Time;durP1;ratioP1;P1;durP2;ratioP2;P2;SDS_P1;SDS_P2;PMS_P1;PMS_P2;Temp;Humidity;BMP_temperature;BMP_pressure;BME280_temperature;BME280_humidity;BME280_pressure;Samples;Min_cycle;Max_cycle;Signal;HPM_P1;HPM_P2
2021/04/19 00:02:10;;;;;;;12.15;10.50;;;;;;;6.96;67.31;96564.58;1714035;83;21518;-50
2021/04/19 00:04:38;;;;;;;11.85;10.65;;;;;;;6.90;67.39;96562.80;1702194;83;21097;-51
2021/04/19 00:07:07;;;;;;;11.05;9.50;;;;;;;6.84;67.58;96560.09;1708091;83;21600;-54
2021/04/19 00:09:36;;;;;;;10.50;9.37;;;;;;;6.83;67.71;96562.31;1700697;83;21628;-51
2021/04/19 00:12:05;;;;;;;12.23;10.20;;;;;;;6.80;67.81;96558.14;1698372;83;21499;-52
2021/04/19 00:14:33;;;;;;;14.07;10.48;;;;;;;6.82;67.84;96554.19;1705379;83;22270;-51
2021/04/19 00:17:03;;;;;;;13.43;10.50;;;;;;;6.86;67.77;96553.55;1708179;83;21212;-50
2021/04/19 00:19:31;;;;;;;14.18;10.82;;;;;;;6.88;67.61;96548.70;1706460;83;21241;-52
2021/04/19 00:21:59;;;;;;;14.13;10.38;;;;;;;6.92;67.47;96550.64;1700122;83;21188;-50
2021/04/19 00:24:26;;;;;;;12.10;10.78;;;;;;;6.89;67.36;96546.94;1695404;83;21137;-50
2021/04/19 00:26:54;;;;;;;12.35;10.20;;;;;;;6.90;67.36;96549.44;1709823;83;21400;-52
2021/04/19 00:29:22;;;;;;;11.38;9.28;;;;;;;6.89;67.35;96548.23;1697046;83;21195;-53
2021/04/19 00:31:50;;;;;;;11.27;10.00;;;;;;;6.92;67.39;96545.48;1704844;83;21585;-51
2021/04/19 00:34:18;;;;;;;14.40;9.93;;;;;;;6.99;67.22;96548.92;1695179;83;21132;-51
2021/04/19 00:36:46;;;;;;;13.68;10.80;;;;;;;7.04;67.06;96549.95;1704709;83;21136;-51
2021/04/19 00:39:14;;;;;;;11.80;10.57;;;;;;;7.06;66.77;96549.41;1697891;83;21382;-52
2021/04/19 00:41:42;;;;;;;12.95;10.43;;;;;;;7.03;66.70;96548.75;1697926;83;21292;-53
2021/04/19 00:44:11;;;;;;;11.50;10.05;;;;;;;6.99;66.59;96548.92;1691541;83;21094;-52
2021/04/19 00:46:39;;;;;;;13.53;11.63;;;;;;;6.92;66.68;96547.59;1674770;83;21069;-51
2021/04/19 00:49:07;;;;;;;13.15;11.22;;;;;;;6.85;66.83;96547.58;1703062;83;21058;-51
2021/04/19 00:51:35;;;;;;;11.10;9.80;;;;;;;6.81;66.96;96542.23;1709724;83;21208;-51
2021/04/19 00:54:04;;;;;;;11.50;9.73;;;;;;;6.77;67.02;96542.84;1713692;83;21141;-51
2021/04/19 00:56:32;;;;;;;11.22;10.03;;;;;;;6.75;67.24;96542.57;1685621;83;21144;-53
2021/04/19 00:59:00;;;;;;;12.37;10.95;;;;;;;6.79;67.30;96544.05;1692243;83;21621;-51
2021/04/19 01:01:32;;;;;;;12.58;11.00;;;;;;;6.88;67.19;96538.84;1703572;83;21202;-54
2021/04/19 01:03:59;;;;;;;13.35;11.88;;;;;;;6.94;66.79;96530.30;1714121;83;21368;-51
2021/04/19 01:06:27;;;;;;;15.35;12.13;;;;;;;6.95;66.63;96536.28;1706241;83;21065;-51
2021/04/19 01:08:56;;;;;;;13.72;11.70;;;;;;;6.93;66.59;96539.41;1708251;83;21121;-51
2021/04/19 01:11:24;;;;;;;12.88;11.50;;;;;;;6.91;66.59;96544.66;1704919;83;21132;-52
2021/04/19 01:13:52;;;;;;;15.72;11.05;;;;;;;6.89;66.69;96540.05;1706915;83;21113;-51
2021/04/19 01:16:22;;;;;;;13.45;10.60;;;;;;;6.94;66.55;96540.63;1707669;83;22365;-52
2021/04/19 01:18:52;;;;;;;13.45;10.13;;;;;;;6.95;66.44;96531.13;1714302;82;21085;-50
2021/04/19 01:21:21;;;;;;;;;;;;;;;6.96;66.40;96535.38;1720761;83;21089;-50
2021/04/19 01:23:49;;;;;;;11.30;10.03;;;;;;;6.95;66.38;96534.99;1719811;82;20219;-50
2021/04/19 01:26:18;;;;;;;12.78;11.30;;;;;;;6.90;66.39;96530.09;1719903;82;21145;-50
2021/04/19 01:28:48;;;;;;;14.83;11.35;;;;;;;6.81;66.44;96528.05;1697945;83;21147;-50
2021/04/19 01:31:16;;;;;;;13.55;10.98;;;;;;;6.77;66.54;96529.95;1689287;84;21145;-50
2021/04/19 01:33:45;;;;;;;;;;;;;;;6.76;66.45;96523.14;1706393;82;21550;-50
2021/04/19 01:36:13;;;;;;;15.40;11.63;;;;;;;6.72;66.57;96529.38;1713316;83;20271;-51
2021/04/19 01:38:42;;;;;;;13.22;11.05;;;;;;;6.69;66.57;96528.26;1719770;83;21190;-50
2021/04/19 01:41:10;;;;;;;15.30;11.55;;;;;;;6.67;66.62;96527.98;1719118;83;21341;-50
2021/04/19 01:43:38;;;;;;;12.00;9.45;;;;;;;6.66;66.70;96523.30;1718835;83;21085;-50
2021/04/19 01:46:07;;;;;;;14.05;10.10;;;;;;;6.70;66.68;96516.22;1717264;83;21090;-50
2021/04/19 01:48:36;;;;;;;12.75;11.03;;;;;;;6.70;66.63;96516.22;1694730;83;21165;-50
2021/04/19 01:51:06;;;;;;;12.47;10.48;;;;;;;6.67;66.64;96514.62;1689622;85;21141;-51
2021/04/19 01:53:35;;;;;;;13.08;11.60;;;;;;;6.63;66.73;96519.59;1715687;83;21215;-51
2021/04/19 01:56:06;;;;;;;11.97;10.78;;;;;;;6.67;66.65;96514.62;1719984;82;21595;-50
2021/04/19 01:58:36;;;;;;;15.00;11.65;;;;;;;6.67;66.58;96521.54;1700474;83;21115;-50
2021/04/19 02:01:05;;;;;;;13.32;11.35;;;;;;;6.65;66.52;96510.02;1704515;83;21157;-50
2021/04/19 02:04:04;;;;;;;12.35;11.08;;;;;;;6.61;66.46;96514.96;1719671;83;21128;-51
2021/04/19 02:06:55;;;;;;;13.08;10.40;;;;;;;6.54;66.60;96511.08;1716758;83;21395;-50
2021/04/19 02:09:27;;;;;;;12.63;9.55;;;;;;;6.48;66.82;96509.69;1693064;83;21625;-51
2021/04/19 02:12:17;;;;;;;13.72;11.03;;;;;;;6.43;66.91;96508.64;1717118;83;21156;-51
2021/04/19 02:15:20;;;;;;;13.13;10.98;;;;;;;6.40;67.06;96503.66;1704402;83;21612;-51
2021/04/19 02:18:12;;;;;;;17.20;11.57;;;;;;;6.37;67.05;96503.81;1711958;83;21057;-52
2021/04/19 02:20:47;;;;;;;14.33;11.38;;;;;;;6.35;67.17;96506.09;1704529;83;21533;-51
2021/04/19 02:23:34;;;;;;;13.48;11.30;;;;;;;6.34;67.12;96504.45;1702334;83;21116;-51
2021/04/19 02:26:22;;;;;;;12.68;11.38;;;;;;;6.33;67.15;96501.48;1690179;83;21200;-51
2021/04/19 02:29:06;;;;;;;12.65;10.28;;;;;;;6.31;67.18;96505.44;1713428;83;21473;-51
2021/04/19 02:31:45;;;;;;;12.75;10.15;;;;;;;6.33;67.22;96506.64;1708392;83;21561;-51
2021/04/19 02:34:15;;;;;;;12.85;11.15;;;;;;;6.37;67.22;96502.53;1704180;84;21216;-51
2021/04/19 02:36:45;;;;;;;15.35;11.25;;;;;;;6.41;67.14;96500.61;1702152;84;21740;-53
2021/04/19 02:39:13;;;;;;;;;;;;;;;6.43;66.99;96494.47;1689187;84;21170;-51
2021/04/19 02:41:41;;;;;;;13.48;11.05;;;;;;;6.42;66.85;96500.52;1706361;84;20641;-51
2021/04/19 02:44:10;;;;;;;13.32;11.40;;;;;;;6.39;66.84;96503.73;1706248;83;21148;-51
2021/04/19 02:46:39;;;;;;;13.10;11.50;;;;;;;6.36;66.95;96496.99;1705244;84;21222;-50
2021/04/19 02:49:07;;;;;;;14.83;11.95;;;;;;;6.36;67.00;96497.45;1706191;83;21151;-51
2021/04/19 02:51:35;;;;;;;13.58;10.72;;;;;;;6.33;67.08;96495.05;1680942;83;21154;-52
2021/04/19 02:54:05;;;;;;;11.70;10.13;;;;;;;6.23;67.14;96491.70;1691749;83;21097;-51
2021/04/19 02:56:35;;;;;;;13.50;11.55;;;;;;;6.14;67.62;96488.33;1698582;84;21491;-52
2021/04/19 02:59:06;;;;;;;11.88;10.68;;;;;;;6.03;67.91;96490.66;1683574;84;23039;-51
2021/04/19 03:01:38;;;;;;;13.38;11.12;;;;;;;5.99;68.16;96486.13;1694855;83;21125;-51
2021/04/19 03:04:11;;;;;;;13.30;11.35;;;;;;;5.99;68.20;96490.46;1663284;84;21168;-51
2021/04/19 03:06:42;;;;;;;12.40;11.08;;;;;;;6.01;68.20;96484.76;1696683;84;21093;-50
2021/04/19 03:09:11;;;;;;;12.30;10.70;;;;;;;5.99;68.19;96484.84;1684231;84;21066;-50
2021/04/19 03:11:49;;;;;;;12.35;9.70;;;;;;;5.97;68.24;96487.11;1706165;84;21363;-51
2021/04/19 03:14:17;;;;;;;12.85;10.05;;;;;;;5.96;68.40;96482.42;1685825;84;21125;-53
2021/04/19 03:16:51;;;;;;;13.30;10.28;;;;;;;6.01;68.34;96480.43;1692539;84;21185;-50
2021/04/19 03:19:24;;;;;;;13.18;10.70;;;;;;;6.03;68.32;96480.34;1667880;84;21522;-54
2021/04/19 03:21:52;;;;;;;13.83;11.33;;;;;;;6.07;68.20;96485.26;1659926;84;21073;-52
2021/04/19 03:24:22;;;;;;;12.00;10.63;;;;;;;6.11;68.06;96486.38;1706322;84;22292;-51
2021/04/19 03:26:54;;;;;;;12.73;11.43;;;;;;;6.14;67.85;96484.94;1686949;83;21153;-51
2021/04/19 03:29:22;;;;;;;13.30;11.90;;;;;;;6.16;67.75;96481.34;1684587;84;21511;-51
2021/04/19 03:32:11;;;;;;;39.60;20.73;;;;;;;6.24;67.58;96486.91;1880400;76;25956;-54
2021/04/19 03:34:41;;;;;;;17.15;12.28;;;;;;;6.18;67.55;96479.97;1833901;76;21121;-53
2021/04/19 03:37:20;;;;;;;18.10;11.28;;;;;;;6.23;67.52;96483.98;1823635;77;21473;-52
2021/04/19 03:39:52;;;;;;;;;;;;;;;6.23;67.42;96476.24;1842906;77;21088;-51
2021/04/19 03:42:19;;;;;;;13.30;10.90;;;;;;;6.22;67.43;96476.33;1858943;77;20225;-51
2021/04/19 03:44:49;;;;;;;13.68;11.50;;;;;;;6.23;67.31;96486.98;1859208;77;21046;-51
2021/04/19 03:47:19;;;;;;;13.38;11.83;;;;;;;6.26;67.19;96482.95;1844354;77;21101;-52
2021/04/19 03:49:58;;;;;;;15.27;11.60;;;;;;;6.29;67.09;96481.50;1851385;76;28540;-52
2021/04/19 03:52:35;;;;;;;14.75;11.88;;;;;;;6.22;67.00;96486.63;1796916;79;21087;-51
2021/04/19 03:55:07;;;;;;;12.65;10.60;;;;;;;6.17;67.20;96487.34;1808270;79;21339;-51
2021/04/19 03:57:35;;;;;;;13.58;9.83;;;;;;;6.16;67.19;96490.83;1809387;78;21492;-51
2021/04/19 04:00:08;;;;;;;12.58;10.40;;;;;;;6.14;67.34;96489.62;1811776;78;21115;-51
2021/04/19 04:02:48;;;;;;;11.57;10.28;;;;;;;6.19;67.46;96488.91;1836569;78;21479;-51
2021/04/19 04:05:19;;;;;;;17.10;11.50;;;;;;;6.28;67.31;96494.00;1837703;78;21031;-51
2021/04/19 04:08:00;;;;;;;14.37;11.87;;;;;;;6.41;66.94;96495.45;1850370;76;28042;-50
2021/04/19 04:10:28;;;;;;;13.95;12.00;;;;;;;6.40;66.80;96495.92;1809636;78;21044;-51
2021/04/19 04:12:57;;;;;;;13.88;11.43;;;;;;;6.46;66.62;96497.31;1807714;78;21192;-50
2021/04/19 04:15:26;;;;;;;16.07;11.48;;;;;;;6.52;66.41;96498.27;1794491;78;21146;-52
2021/04/19 04:17:55;;;;;;;14.07;12.13;;;;;;;6.56;66.14;96492.04;1807773;78;21158;-51
2021/04/19 04:20:29;;;;;;;13.13;11.15;;;;;;;6.56;66.04;96488.61;1807385;79;21102;-50
2021/04/19 04:22:58;;;;;;;13.45;10.35;;;;;;;6.58;65.96;96494.06;1808121;78;21483;-50
2021/04/19 04:25:37;;;;;;;16.63;10.90;;;;;;;6.59;65.93;96488.45;1884255;76;26559;-51
2021/04/19 04:28:06;;;;;;;14.83;11.57;;;;;;;6.53;66.24;96487.49;1773710;80;21498;-51
2021/04/19 04:30:36;;;;;;;13.75;11.57;;;;;;;6.52;66.27;96487.14;1778024;79;21366;-51
2021/04/19 04:33:11;;;;;;;16.60;11.15;;;;;;;6.51;66.32;96490.62;1795029;79;21027;-51
2021/04/19 04:35:41;;;;;;;18.62;11.03;;;;;;;6.49;66.27;96488.13;1802884;79;20988;-51
2021/04/19 04:38:17;;;;;;;15.45;11.48;;;;;;;6.43;66.45;96489.75;1800356;79;21492;-51
2021/04/19 04:40:47;;;;;;;14.68;10.25;;;;;;;6.36;66.75;96493.59;1802287;79;21084;-50
2021/04/19 04:43:19;;;;;;;14.78;9.73;;;;;;;6.32;67.04;96494.23;1762601;80;23592;-50
2021/04/19 04:45:47;;;;;;;16.12;11.90;;;;;;;6.34;67.14;96491.56;1786554;80;21490;-51
2021/04/19 04:48:22;;;;;;;;;;;;;;;6.34;67.17;96492.86;1815136;79;21069;-52
2021/04/19 04:50:57;;;;;;;20.37;13.08;;;;;;;6.38;67.24;96491.75;1760896;80;20227;-52
2021/04/19 04:53:33;;;;;;;20.27;13.43;;;;;;;6.46;67.05;96493.45;1796692;79;21099;-50
2021/04/19 04:56:01;;;;;;;22.70;14.05;;;;;;;6.53;66.74;96491.36;1777903;80;21465;-51
2021/04/19 04:58:29;;;;;;;20.10;15.03;;;;;;;6.58;66.76;96490.67;1782147;79;21144;-51
2021/04/19 05:00:57;;;;;;;20.50;13.93;;;;;;;6.72;66.52;96486.01;1794395;78;21116;-52
2021/04/19 05:03:26;;;;;;;18.77;14.30;;;;;;;6.80;66.04;96489.80;1785270;79;21085;-52
2021/04/19 05:05:54;;;;;;;16.95;11.35;;;;;;;6.87;65.94;96484.30;1834695;77;21463;-52
2021/04/19 05:08:22;;;;;;;16.95;11.38;;;;;;;6.95;65.67;96480.35;1790142;78;22156;-51
2021/04/19 05:10:50;;;;;;;17.35;11.93;;;;;;;7.05;65.34;96480.66;1817652;78;21984;-51
2021/04/19 05:13:18;;;;;;;19.95;12.25;;;;;;;7.13;65.07;96482.33;1785694;80;21509;-51
2021/04/19 05:15:48;;;;;;;14.43;11.33;;;;;;;7.17;64.93;96481.69;1803322;79;21495;-51
2021/04/19 05:18:18;;;;;;;20.57;11.90;;;;;;;7.26;64.71;96480.33;1805625;79;21062;-51
2021/04/19 05:20:47;;;;;;;19.00;11.73;;;;;;;7.31;64.65;96482.18;1772571;80;22586;-52
2021/04/19 05:23:17;;;;;;;19.52;11.90;;;;;;;7.46;64.43;96479.96;1759166;81;21524;-51
2021/04/19 05:25:45;;;;;;;22.85;11.73;;;;;;;7.60;64.15;96478.30;1788242;80;21189;-51
2021/04/19 05:28:14;;;;;;;17.52;11.73;;;;;;;7.71;63.79;96480.63;1788844;80;21063;-51
2021/04/19 05:30:42;;;;;;;18.62;11.83;;;;;;;7.81;63.30;96478.75;1789581;80;21106;-51
2021/04/19 05:33:10;;;;;;;19.50;11.93;;;;;;;7.88;63.11;96480.06;1762792;80;22278;-51
2021/04/19 05:35:38;;;;;;;14.80;11.22;;;;;;;7.99;62.95;96481.48;1764618;78;21172;-51
2021/04/19 05:38:07;;;;;;;18.60;11.85;;;;;;;8.10;62.86;96485.53;1765894;81;21081;-50
2021/04/19 05:40:35;;;;;;;15.55;11.90;;;;;;;8.20;62.21;96479.33;1779852;80;21567;-50
2021/04/19 05:43:06;;;;;;;16.02;11.80;;;;;;;8.25;62.14;96475.98;1756390;81;21056;-50
2021/04/19 05:45:37;;;;;;;20.72;12.20;;;;;;;8.31;61.54;96476.08;1783446;80;21362;-50
2021/04/19 05:48:08;;;;;;;17.20;11.95;;;;;;;8.34;61.54;96475.04;1764050;81;21069;-50
2021/04/19 05:50:36;;;;;;;14.53;11.20;;;;;;;8.39;61.43;96479.01;1781053;79;21148;-52
2021/04/19 05:53:03;;;;;;;13.90;11.73;;;;;;;8.47;61.23;96466.92;1767520;81;21072;-52
2021/04/19 05:55:33;;;;;;;;;;;;;;;8.59;61.08;96473.88;1798307;79;21086;-50
2021/04/19 05:58:24;;;;;;;18.55;11.68;;;;;;;8.75;60.40;96478.05;1796552;78;21940;-51
2021/04/19 06:00:57;;;;;;;16.25;12.33;;;;;;;8.91;60.16;96468.83;1791258;79;21151;-50
2021/04/19 06:03:36;;;;;;;17.73;13.25;;;;;;;9.15;59.63;96471.56;1798257;79;21207;-51
2021/04/19 06:06:22;;;;;;;18.30;12.60;;;;;;;9.43;59.09;96478.30;1767591;81;21498;-51
2021/04/19 06:09:15;;;;;;;15.78;11.68;;;;;;;9.65;57.98;96475.06;1735657;82;21600;-51
2021/04/19 06:11:50;;;;;;;14.35;10.58;;;;;;;9.75;57.22;96479.14;1758011;81;21100;-52
2021/04/19 06:14:24;;;;;;;13.40;11.18;;;;;;;9.62;57.12;96479.19;1756546;79;21140;-51
2021/04/19 06:16:52;;;;;;;15.70;11.38;;;;;;;9.60;57.50;96478.44;1796529;78;21133;-51
2021/04/19 06:19:19;;;;;;;13.58;10.48;;;;;;;9.64;57.25;96479.05;1821023;78;21584;-51
2021/04/19 06:21:47;;;;;;;12.40;10.72;;;;;;;9.64;57.52;96478.61;1820976;78;21073;-51
2021/04/19 06:24:15;;;;;;;20.62;11.53;;;;;;;9.74;57.52;96474.92;1819644;78;21384;-51
2021/04/19 06:26:43;;;;;;;19.65;12.07;;;;;;;9.83;57.08;96475.56;1760284;80;21581;-51
2021/04/19 06:29:13;;;;;;;17.47;11.90;;;;;;;9.88;56.82;96474.77;1800913;78;21192;-51
2021/04/19 06:31:45;;;;;;;18.60;11.15;;;;;;;9.99;57.11;96468.03;1804402;78;21138;-51
2021/04/19 06:34:15;;;;;;;17.15;10.98;;;;;;;10.13;56.40;96475.20;1782975;80;21456;-51
2021/04/19 06:36:44;;;;;;;19.07;12.35;;;;;;;10.26;56.36;96473.02;1795020;78;21697;-50
2021/04/19 06:39:13;;;;;;;15.08;11.50;;;;;;;10.38;54.97;96472.63;1796335;79;21148;-52
2021/04/19 06:41:41;;;;;;;17.45;12.23;;;;;;;10.36;54.45;96475.81;1792799;79;21143;-52
2021/04/19 06:44:09;;;;;;;20.00;12.05;;;;;;;10.33;55.25;96482.06;1791405;79;21552;-52
2021/04/19 06:46:39;;;;;;;21.07;12.45;;;;;;;10.33;55.13;96478.63;1791247;78;21063;-51
2021/04/19 06:49:09;;;;;;;16.97;12.70;;;;;;;10.35;55.11;96481.48;1796352;79;22259;-55
2021/04/19 06:51:37;;;;;;;18.62;13.05;;;;;;;10.38;54.36;96486.45;1796221;79;21080;-52
2021/04/19 06:54:06;;;;;;;18.97;12.13;;;;;;;10.34;54.63;96484.18;1792625;79;21529;-52
2021/04/19 06:56:40;;;;;;;23.57;12.55;;;;;;;10.36;54.85;96479.25;1787397;80;21959;-52
2021/04/19 06:59:12;;;;;;;35.60;12.28;;;;;;;10.46;55.03;96481.55;1772254;80;21207;-51
2021/04/19 07:01:41;;;;;;;35.28;25.75;;;;;;;10.63;55.17;96484.20;1780485;79;21260;-51
2021/04/19 07:04:13;;;;;;;33.48;24.07;;;;;;;10.88;54.49;96476.41;1756858;80;21552;-54
2021/04/19 07:06:41;;;;;;;25.48;15.50;;;;;;;11.08;53.66;96481.42;1776814;79;21112;-51
2021/04/19 07:09:23;;;;;;;22.10;13.68;;;;;;;11.24;53.33;96479.34;1784057;79;21573;-51
2021/04/19 07:12:01;;;;;;;20.55;12.60;;;;;;;11.43;52.51;96473.59;1792325;80;21194;-52
2021/04/19 07:14:30;;;;;;;19.37;11.57;;;;;;;11.59;52.09;96479.73;1753826;79;21327;-51
2021/04/19 07:16:58;;;;;;;16.87;12.23;;;;;;;11.69;50.74;96481.97;1777203;80;21160;-51
2021/04/19 07:19:26;;;;;;;14.50;10.68;;;;;;;11.70;50.72;96481.52;1789523;79;21141;-51
2021/04/19 07:21:54;;;;;;;13.85;10.32;;;;;;;11.76;50.25;96479.75;1739339;80;21850;-51
2021/04/19 07:24:22;;;;;;;17.02;10.13;;;;;;;11.85;50.16;96477.72;1779031;80;21143;-52
2021/04/19 07:26:52;;;;;;;16.50;11.90;;;;;;;12.05;49.67;96479.28;1753837;81;21394;-51
2021/04/19 07:29:19;;;;;;;17.60;11.60;;;;;;;12.20;49.10;96480.67;1760778;81;21589;-51
2021/04/19 07:31:55;;;;;;;17.33;12.50;;;;;;;12.36;48.99;96477.69;1741671;81;21073;-51
2021/04/19 07:34:28;;;;;;;15.15;11.08;;;;;;;12.59;48.65;96478.94;1729429;81;21501;-51
2021/04/19 07:37:02;;;;;;;15.50;12.25;;;;;;;12.85;48.72;96472.92;1739416;82;21097;-51
2021/04/19 07:39:40;;;;;;;20.43;13.03;;;;;;;13.14;47.99;96469.68;1732543;82;21391;-51
2021/04/19 07:42:09;;;;;;;19.92;13.80;;;;;;;13.28;47.45;96471.97;1714411;82;21211;-51
2021/04/19 07:44:50;;;;;;;35.78;15.93;;;;;;;13.47;46.89;96470.45;1732742;81;21178;-51
2021/04/19 07:47:37;;;;;;;31.17;15.95;;;;;;;13.58;46.38;96472.98;1739974;81;21080;-51
2021/04/19 07:50:18;;;;;;;30.72;15.13;;;;;;;13.50;46.31;96469.72;1759078;81;21037;-51
2021/04/19 07:53:07;;;;;;;27.37;14.83;;;;;;;13.39;46.74;96468.52;1747080;81;22375;-51
2021/04/19 07:55:38;;;;;;;23.80;13.90;;;;;;;13.38;46.65;96466.37;1741188;81;21113;-51
2021/04/19 07:58:22;;;;;;;18.92;13.05;;;;;;;13.52;46.96;96470.89;1740319;81;21197;-51
2021/04/19 08:00:51;;;;;;;35.43;12.80;;;;;;;13.54;46.59;96470.31;1713554;82;21163;-51
2021/04/19 08:03:20;;;;;;;24.82;11.97;;;;;;;13.28;47.05;96461.55;1745874;81;21596;-50
2021/04/19 08:05:53;;;;;;;23.73;12.68;;;;;;;13.10;47.37;96469.60;1760689;81;22264;-50
2021/04/19 08:08:37;;;;;;;27.07;13.00;;;;;;;12.93;47.71;96462.70;1754608;81;21719;-51
2021/04/19 08:11:11;;;;;;;22.60;11.33;;;;;;;12.82;48.02;96468.77;1735381;82;21068;-51
2021/04/19 08:13:40;;;;;;;29.60;13.68;;;;;;;12.77;48.55;96466.20;1740192;82;21171;-51
2021/04/19 08:16:19;;;;;;;37.13;13.72;;;;;;;12.73;48.90;96467.39;1740102;81;21181;-51
2021/04/19 08:18:49;;;;;;;28.25;12.88;;;;;;;12.70;48.49;96467.19;1725152;81;22363;-51
2021/04/19 08:21:28;;;;;;;32.03;14.13;;;;;;;12.56;48.55;96468.77;1761100;80;21065;-51
2021/04/19 08:23:56;;;;;;;28.07;12.47;;;;;;;12.41;48.75;96465.62;1750740;81;21502;-51
2021/04/19 08:26:48;;;;;;;24.77;12.13;;;;;;;12.36;48.60;96467.77;1696208;82;21474;-50
2021/04/19 08:29:42;;;;;;;29.40;12.13;;;;;;;12.21;49.08;96464.61;1739952;81;22155;-52
2021/04/19 08:32:11;;;;;;;26.30;12.28;;;;;;;12.30;49.36;96464.70;1736332;81;21475;-51
2021/04/19 08:34:40;;;;;;;25.35;12.47;;;;;;;12.64;49.28;96463.28;1743547;81;21136;-51
2021/04/19 08:37:11;;;;;;;17.85;10.60;;;;;;;12.94;48.83;96457.01;1760947;81;21148;-51
2021/04/19 08:39:40;;;;;;;17.55;11.35;;;;;;;13.11;47.56;96466.02;1745660;81;21172;-51
2021/04/19 08:42:10;;;;;;;19.37;11.20;;;;;;;13.10;47.68;96457.39;1710572;83;21188;-51
2021/04/19 08:44:38;;;;;;;14.78;10.78;;;;;;;13.24;48.77;96457.08;1717150;82;21512;-51
2021/04/19 08:47:07;;;;;;;15.68;10.25;;;;;;;13.44;48.08;96455.44;1710993;82;21116;-51
2021/04/19 08:49:35;;;;;;;17.70;11.20;;;;;;;13.64;47.19;96456.02;1723767;82;21068;-51
2021/04/19 08:52:04;;;;;;;18.40;12.05;;;;;;;13.75;46.45;96458.51;1740064;82;21080;-52
2021/04/19 08:54:33;;;;;;;15.20;11.45;;;;;;;13.86;46.16;96455.81;1757276;81;21061;-50
2021/04/19 08:57:01;;;;;;;16.70;11.18;;;;;;;14.03;46.06;96454.38;1682391;83;21385;-51
2021/04/19 08:59:30;;;;;;;18.25;10.88;;;;;;;14.30;45.80;96457.65;1714930;81;21236;-51
2021/04/19 09:01:57;;;;;;;13.30;10.63;;;;;;;14.60;44.69;96455.11;1740939;81;21117;-51
2021/04/19 09:04:26;;;;;;;14.10;11.00;;;;;;;14.91;43.66;96449.27;1741094;81;21149;-51
2021/04/19 09:06:57;;;;;;;12.70;10.43;;;;;;;15.27;42.82;96449.00;1761026;81;21513;-51
2021/04/19 09:09:36;;;;;;;17.25;10.75;;;;;;;15.55;42.45;96447.77;1747405;81;21404;-51
2021/04/19 09:12:17;;;;;;;13.15;9.93;;;;;;;15.82;42.44;96446.17;1744682;81;21076;-51
2021/04/19 09:14:45;;;;;;;12.25;10.48;;;;;;;15.99;42.11;96442.80;1740128;81;21081;-52
2021/04/19 09:17:26;;;;;;;11.68;10.15;;;;;;;16.05;41.72;96443.18;1739733;81;21498;-52
2021/04/19 09:19:56;;;;;;;16.55;10.60;;;;;;;16.01;41.63;96436.11;1761114;81;21469;-51
2021/04/19 09:22:24;;;;;;;12.60;10.03;;;;;;;15.89;41.79;96442.03;1742096;82;21380;-52
2021/04/19 09:25:14;;;;;;;13.03;10.70;;;;;;;15.79;41.85;96442.56;1730520;81;21136;-51
2021/04/19 09:27:52;;;;;;;18.60;11.18;;;;;;;15.68;42.08;96437.48;1752807;79;21067;-51
2021/04/19 09:30:27;;;;;;;21.15;11.33;;;;;;;15.48;42.57;96446.70;1790259;80;21118;-51
2021/04/19 09:33:10;;;;;;;14.40;12.18;;;;;;;15.22;43.34;96442.07;1750071;80;21462;-52
2021/04/19 09:35:45;;;;;;;27.40;13.38;;;;;;;15.02;44.38;96445.70;1780374;80;21180;-51
2021/04/19 09:38:33;;;;;;;15.25;12.15;;;;;;;14.83;45.21;96444.72;1774514;80;21504;-51
2021/04/19 09:41:04;;;;;;;15.23;11.05;;;;;;;14.69;45.69;96442.55;1780451;80;21117;-51
2021/04/19 09:43:43;;;;;;;12.98;10.08;;;;;;;14.54;46.44;96440.31;1784044;80;21544;-51
2021/04/19 09:46:29;;;;;;;12.58;10.53;;;;;;;14.50;46.24;96440.71;1785799;80;21124;-51
2021/04/19 09:49:02;;;;;;;15.13;10.20;;;;;;;14.56;45.94;96441.97;1788384;79;21393;-52
2021/04/19 09:51:43;;;;;;;15.78;10.10;;;;;;;14.67;46.16;96442.69;1799928;79;21556;-52
2021/04/19 09:54:14;;;;;;;14.38;9.55;;;;;;;14.80;45.37;96437.19;1783582;80;21561;-51
2021/04/19 09:56:53;;;;;;;11.35;9.33;;;;;;;14.86;44.06;96439.23;1794261;80;21570;-50
2021/04/19 09:59:23;;;;;;;13.05;9.60;;;;;;;14.80;44.60;96439.80;1765022;80;21137;-50
2021/04/19 10:01:53;;;;;;;15.48;9.70;;;;;;;14.84;45.31;96439.86;1758604;80;22169;-51
2021/04/19 10:04:22;;;;;;;12.23;10.03;;;;;;;14.91;44.96;96435.72;1744353;81;21141;-50
2021/04/19 10:06:55;;;;;;;11.18;9.70;;;;;;;14.95;44.47;96436.75;1795194;80;21124;-51
2021/04/19 10:09:25;;;;;;;13.15;10.30;;;;;;;14.91;44.64;96433.59;1782133;79;21046;-50
2021/04/19 10:11:59;;;;;;;16.40;10.58;;;;;;;14.91;44.02;96429.67;1790406;79;21033;-52
2021/04/19 10:14:27;;;;;;;11.50;10.32;;;;;;;14.89;43.83;96437.65;1786629;78;21478;-51
2021/04/19 10:16:55;;;;;;;12.63;10.95;;;;;;;14.77;43.15;96434.01;1786721;78;21149;-50
2021/04/19 10:19:28;;;;;;;11.85;10.55;;;;;;;14.52;43.92;96430.49;1756596;80;21465;-50
2021/04/19 10:22:09;;;;;;;13.25;11.10;;;;;;;14.35;44.38;96440.28;1793160;80;21076;-51
2021/04/19 10:24:56;;;;;;;13.45;10.78;;;;;;;14.16;45.55;96432.78;1763165;80;21615;-51
2021/04/19 10:27:29;;;;;;;15.15;10.90;;;;;;;14.08;45.78;96434.38;1728591;82;21365;-50
2021/04/19 10:30:16;;;;;;;12.88;11.12;;;;;;;14.02;45.92;96429.73;1773541;78;21240;-52
2021/04/19 10:32:44;;;;;;;13.28;11.50;;;;;;;13.98;46.24;96431.78;1788195;78;21065;-52
2021/04/19 10:35:35;;;;;;;15.95;11.55;;;;;;;13.89;46.67;96430.77;1781144;80;21155;-52
2021/04/19 10:38:04;;;;;;;13.60;10.85;;;;;;;13.86;46.31;96425.82;1781276;80;21087;-52
2021/04/19 10:40:32;;;;;;;12.98;10.65;;;;;;;13.83;45.95;96427.38;1767697;80;21361;-52
2021/04/19 10:43:11;;;;;;;13.53;9.88;;;;;;;13.82;45.93;96427.55;1771522;79;21150;-51
2021/04/19 10:45:42;;;;;;;10.18;9.15;;;;;;;13.82;45.64;96427.55;1758944;81;21191;-51
2021/04/19 10:48:24;;;;;;;13.35;9.10;;;;;;;13.83;45.30;96424.77;1747962;80;21571;-51
2021/04/19 10:50:55;;;;;;;13.45;9.43;;;;;;;13.86;45.41;96418.48;1757274;81;21175;-52
2021/04/19 10:53:37;;;;;;;11.85;9.23;;;;;;;13.91;45.49;96417.11;1786730;80;21238;-51
2021/04/19 10:56:08;;;;;;;12.47;9.18;;;;;;;13.99;45.53;96417.77;1773823;79;21234;-51
2021/04/19 10:58:38;;;;;;;14.58;10.00;;;;;;;14.05;44.65;96415.93;1810967;79;21054;-51
2021/04/19 11:01:08;;;;;;;14.05;9.50;;;;;;;14.09;44.57;96416.48;1790149;80;21454;-51
2021/04/19 11:03:37;;;;;;;11.33;9.95;;;;;;;14.17;44.47;96417.94;1773628;78;21076;-51
2021/04/19 11:06:11;;;;;;;11.43;9.95;;;;;;;14.25;44.48;96416.78;1751888;82;21190;-51
2021/04/19 11:09:01;;;;;;;10.95;9.70;;;;;;;14.37;44.43;96414.87;1728117;82;21144;-52
2021/04/19 11:11:32;;;;;;;;;;;;;;;14.46;44.10;96410.14;1768948;79;21152;-52
2021/04/19 11:14:18;;;;;;;11.73;8.20;;;;;;;14.50;43.73;96405.47;1798662;79;20640;-52
2021/04/19 11:17:04;;;;;;;12.03;9.38;;;;;;;14.52;43.78;96405.69;1748434;79;21496;-52
2021/04/19 11:19:44;;;;;;;15.10;9.75;;;;;;;14.53;43.42;96399.98;1747510;81;21152;-51
2021/04/19 11:22:31;;;;;;;12.33;9.73;;;;;;;14.39;43.57;96406.91;1784967;80;21506;-52
2021/04/19 11:25:19;;;;;;;13.00;10.40;;;;;;;14.18;44.24;96409.16;1761417;79;21113;-52
2021/04/19 11:27:51;;;;;;;11.50;10.08;;;;;;;14.05;45.04;96406.80;1782571;79;21049;-53
2021/04/19 11:30:26;;;;;;;11.83;9.90;;;;;;;13.90;45.46;96408.15;1749434;80;21217;-52
2021/04/19 11:33:22;;;;;;;11.10;9.98;;;;;;;13.79;45.77;96402.55;1810189;78;21192;-51
2021/04/19 11:35:59;;;;;;;12.82;9.10;;;;;;;13.67;46.03;96401.83;1730046;80;21119;-52
2021/04/19 11:38:27;;;;;;;10.60;9.50;;;;;;;13.57;46.50;96397.88;1774426;80;21480;-51
2021/04/19 11:41:07;;;;;;;12.07;9.40;;;;;;;13.53;46.71;96401.69;1771295;80;21143;-51
2021/04/19 11:43:43;;;;;;;13.88;9.10;;;;;;;13.49;46.77;96400.80;1783136;78;21056;-52
2021/04/19 11:46:14;;;;;;;15.17;9.60;;;;;;;13.41;46.49;96402.27;1757792;81;21354;-51
2021/04/19 11:48:47;;;;;;;13.10;10.10;;;;;;;13.46;46.64;96405.78;1791758;79;21381;-52
2021/04/19 11:51:16;;;;;;;10.60;9.50;;;;;;;13.57;46.58;96395.76;1765166;80;21485;-51